sensor_id;sensor_type;location;lat;lon;timestamp;temperature;humidity
13684;DHT22;6914;53.552;9.908;2022-08-05T00:02:13;18.50;99.90
13684;DHT22;6914;53.552;9.908;2022-08-05T00:04:41;18.40;99.90
13684;DHT22;6914;53.552;9.908;2022-08-05T00:07:10;18.40;99.90
13684;DHT22;6914;53.552;9.908;2022-08-05T00:09:37;18.40;99.90
13684;DHT22;6914;53.552;9.908;2022-08-05T00:12:05;18.40;99.90
13684;DHT22;6914;53.552;9.908;2022-08-05T00:14:32;18.40;99.90
13684;DHT22;6914;53.552;9.908;2022-08-05T00:16:59;18.30;99.90
13684;DHT22;6914;53.552;9.908;2022-08-05T00:19:26;18.30;99.90
13684;DHT22;6914;53.552;9.908;2022-08-05T00:21:55;18.30;99.90
13684;DHT22;6914;53.552;9.908;2022-08-05T00:24:22;18.30;99.90
13684;DHT22;6914;53.552;9.908;2022-08-05T00:26:49;18.30;99.90
13684;DHT22;6914;53.552;9.908;2022-08-05T00:29:16;18.20;99.90
13684;DHT22;6914;53.552;9.908;2022-08-05T00:31:43;18.10;99.90
13684;DHT22;6914;53.552;9.908;2022-08-05T00:34:10;18.10;99.90
13684;DHT22;6914;53.552;9.908;2022-08-05T00:36:37;18.10;99.90
13684;DHT22;6914;53.552;9.908;2022-08-05T00:39:06;18.00;99.90
13684;DHT22;6914;53.552;9.908;2022-08-05T00:41:34;18.00;99.90
13684;DHT22;6914;53.552;9.908;2022-08-05T00:44:02;18.00;99.90
13684;DHT22;6914;53.552;9.908;2022-08-05T00:46:29;17.90;99.90
13684;DHT22;6914;53.552;9.908;2022-08-05T00:48:56;17.90;99.90
13684;DHT22;6914;53.552;9.908;2022-08-05T00:51:24;17.90;99.90
13684;DHT22;6914;53.552;9.908;2022-08-05T00:53:51;17.90;99.90
13684;DHT22;6914;53.552;9.908;2022-08-05T00:56:19;17.90;99.90
13684;DHT22;6914;53.552;9.908;2022-08-05T00:58:47;17.90;99.90
13684;DHT22;6914;53.552;9.908;2022-08-05T01:01:14;17.90;99.90
13684;DHT22;6914;53.552;9.908;2022-08-05T01:03:41;17.80;99.90
13684;DHT22;6914;53.552;9.908;2022-08-05T01:06:10;17.80;99.90
13684;DHT22;6914;53.552;9.908;2022-08-05T01:08:37;17.80;99.90
13684;DHT22;6914;53.552;9.908;2022-08-05T01:11:10;17.90;99.90
13684;DHT22;6914;53.552;9.908;2022-08-05T01:13:47;17.80;99.90
13684;DHT22;6914;53.552;9.908;2022-08-05T01:16:23;17.80;99.90
13684;DHT22;6914;53.552;9.908;2022-08-05T01:18:53;17.80;99.90
13684;DHT22;6914;53.552;9.908;2022-08-05T01:21:51;17.80;99.90
13684;DHT22;6914;53.552;9.908;2022-08-05T01:24:40;17.80;99.90
13684;DHT22;6914;53.552;9.908;2022-08-05T01:27:21;17.90;99.90
13684;DHT22;6914;53.552;9.908;2022-08-05T01:29:56;17.90;99.90
13684;DHT22;6914;53.552;9.908;2022-08-05T01:32:26;17.90;99.90
13684;DHT22;6914;53.552;9.908;2022-08-05T01:34:57;17.90;99.90
13684;DHT22;6914;53.552;9.908;2022-08-05T01:37:31;17.90;99.90
13684;DHT22;6914;53.552;9.908;2022-08-05T01:40:02;17.90;99.90
13684;DHT22;6914;53.552;9.908;2022-08-05T01:42:32;17.80;99.90
13684;DHT22;6914;53.552;9.908;2022-08-05T01:45:03;17.80;99.90
13684;DHT22;6914;53.552;9.908;2022-08-05T01:47:33;17.80;99.90
13684;DHT22;6914;53.552;9.908;2022-08-05T01:50:03;17.80;99.90
13684;DHT22;6914;53.552;9.908;2022-08-05T01:52:36;17.80;99.90
13684;DHT22;6914;53.552;9.908;2022-08-05T01:55:07;17.80;99.90
13684;DHT22;6914;53.552;9.908;2022-08-05T01:57:38;17.70;99.90
13684;DHT22;6914;53.552;9.908;2022-08-05T02:00:09;17.70;99.90
13684;DHT22;6914;53.552;9.908;2022-08-05T02:02:38;17.70;99.90
13684;DHT22;6914;53.552;9.908;2022-08-05T02:05:09;17.70;99.90
13684;DHT22;6914;53.552;9.908;2022-08-05T02:07:38;17.70;99.90
13684;DHT22;6914;53.552;9.908;2022-08-05T02:10:08;17.70;99.90
13684;DHT22;6914;53.552;9.908;2022-08-05T02:12:43;17.70;99.90
13684;DHT22;6914;53.552;9.908;2022-08-05T02:15:16;17.70;99.90
13684;DHT22;6914;53.552;9.908;2022-08-05T02:17:50;17.60;99.90
13684;DHT22;6914;53.552;9.908;2022-08-05T02:20:21;17.60;99.90
13684;DHT22;6914;53.552;9.908;2022-08-05T02:22:54;17.60;99.90
13684;DHT22;6914;53.552;9.908;2022-08-05T02:25:26;17.60;99.90
13684;DHT22;6914;53.552;9.908;2022-08-05T02:27:55;17.60;99.90
13684;DHT22;6914;53.552;9.908;2022-08-05T02:30:26;17.60;99.90
13684;DHT22;6914;53.552;9.908;2022-08-05T02:32:55;17.60;99.90
13684;DHT22;6914;53.552;9.908;2022-08-05T02:35:25;17.60;99.90
13684;DHT22;6914;53.552;9.908;2022-08-05T02:37:54;17.60;99.90
13684;DHT22;6914;53.552;9.908;2022-08-05T02:40:23;17.60;99.90
13684;DHT22;6914;53.552;9.908;2022-08-05T02:42:52;17.50;99.90
13684;DHT22;6914;53.552;9.908;2022-08-05T02:45:22;17.50;99.90
13684;DHT22;6914;53.552;9.908;2022-08-05T02:47:51;17.40;99.90
13684;DHT22;6914;53.552;9.908;2022-08-05T02:50:20;17.10;99.90
13684;DHT22;6914;53.552;9.908;2022-08-05T02:52:50;16.80;99.90
13684;DHT22;6914;53.552;9.908;2022-08-05T02:55:18;16.60;99.90
13684;DHT22;6914;53.552;9.908;2022-08-05T02:57:45;16.50;99.90
13684;DHT22;6914;53.552;9.908;2022-08-05T03:00:13;16.50;99.90
13684;DHT22;6914;53.552;9.908;2022-08-05T03:02:41;16.40;99.90
13684;DHT22;6914;53.552;9.908;2022-08-05T03:05:11;16.40;99.90
13684;DHT22;6914;53.552;9.908;2022-08-05T03:07:40;16.40;99.90
13684;DHT22;6914;53.552;9.908;2022-08-05T03:10:09;16.30;99.90
13684;DHT22;6914;53.552;9.908;2022-08-05T03:12:37;16.30;99.90
13684;DHT22;6914;53.552;9.908;2022-08-05T03:15:06;16.30;99.90
13684;DHT22;6914;53.552;9.908;2022-08-05T03:17:34;16.20;99.90
13684;DHT22;6914;53.552;9.908;2022-08-05T03:20:01;16.30;99.90
13684;DHT22;6914;53.552;9.908;2022-08-05T03:22:30;16.30;99.90
13684;DHT22;6914;53.552;9.908;2022-08-05T03:24:58;16.20;99.90
13684;DHT22;6914;53.552;9.908;2022-08-05T03:27:25;16.20;99.90
13684;DHT22;6914;53.552;9.908;2022-08-05T03:29:52;16.20;99.90
13684;DHT22;6914;53.552;9.908;2022-08-05T03:32:20;16.20;99.90
13684;DHT22;6914;53.552;9.908;2022-08-05T03:34:47;16.20;99.90
13684;DHT22;6914;53.552;9.908;2022-08-05T03:37:14;16.20;99.90
13684;DHT22;6914;53.552;9.908;2022-08-05T03:39:54;16.10;99.90
13684;DHT22;6914;53.552;9.908;2022-08-05T03:42:21;16.10;99.90
13684;DHT22;6914;53.552;9.908;2022-08-05T03:44:48;16.00;99.90
13684;DHT22;6914;53.552;9.908;2022-08-05T03:47:15;16.00;99.90
13684;DHT22;6914;53.552;9.908;2022-08-05T03:49:42;16.00;99.90
13684;DHT22;6914;53.552;9.908;2022-08-05T03:52:11;16.00;99.90
13684;DHT22;6914;53.552;9.908;2022-08-05T03:54:47;15.90;99.90
13684;DHT22;6914;53.552;9.908;2022-08-05T03:57:17;15.90;99.90
13684;DHT22;6914;53.552;9.908;2022-08-05T03:59:51;15.90;99.90
13684;DHT22;6914;53.552;9.908;2022-08-05T04:02:21;15.90;99.90
13684;DHT22;6914;53.552;9.908;2022-08-05T04:04:50;15.80;99.90
13684;DHT22;6914;53.552;9.908;2022-08-05T04:07:17;15.80;99.90
13684;DHT22;6914;53.552;9.908;2022-08-05T04:09:45;15.80;99.90
13684;DHT22;6914;53.552;9.908;2022-08-05T04:12:13;15.80;99.90
13684;DHT22;6914;53.552;9.908;2022-08-05T04:14:41;15.80;99.90
13684;DHT22;6914;53.552;9.908;2022-08-05T04:17:09;15.80;99.90
13684;DHT22;6914;53.552;9.908;2022-08-05T04:19:41;15.80;99.90
13684;DHT22;6914;53.552;9.908;2022-08-05T04:22:08;15.80;99.90
13684;DHT22;6914;53.552;9.908;2022-08-05T04:24:36;15.80;99.90
13684;DHT22;6914;53.552;9.908;2022-08-05T04:27:03;15.80;99.90
13684;DHT22;6914;53.552;9.908;2022-08-05T04:29:30;15.80;99.90
13684;DHT22;6914;53.552;9.908;2022-08-05T04:31:59;15.80;99.90
13684;DHT22;6914;53.552;9.908;2022-08-05T04:34:26;15.90;99.90
13684;DHT22;6914;53.552;9.908;2022-08-05T04:36:53;15.90;99.90
13684;DHT22;6914;53.552;9.908;2022-08-05T04:39:21;15.90;99.90
13684;DHT22;6914;53.552;9.908;2022-08-05T04:41:48;15.90;99.90
13684;DHT22;6914;53.552;9.908;2022-08-05T04:44:15;15.90;99.90
13684;DHT22;6914;53.552;9.908;2022-08-05T04:46:42;15.90;99.90
13684;DHT22;6914;53.552;9.908;2022-08-05T04:49:11;15.90;99.90
13684;DHT22;6914;53.552;9.908;2022-08-05T04:51:38;15.90;99.90
13684;DHT22;6914;53.552;9.908;2022-08-05T04:54:05;16.00;99.90
13684;DHT22;6914;53.552;9.908;2022-08-05T04:56:32;15.90;99.90
13684;DHT22;6914;53.552;9.908;2022-08-05T04:58:59;15.90;99.90
13684;DHT22;6914;53.552;9.908;2022-08-05T05:01:26;15.90;99.90
13684;DHT22;6914;53.552;9.908;2022-08-05T05:03:53;16.00;99.90
13684;DHT22;6914;53.552;9.908;2022-08-05T05:06:21;16.00;99.90
13684;DHT22;6914;53.552;9.908;2022-08-05T05:08:48;16.00;99.90
13684;DHT22;6914;53.552;9.908;2022-08-05T05:11:15;16.10;99.90
13684;DHT22;6914;53.552;9.908;2022-08-05T05:13:42;16.20;99.90
13684;DHT22;6914;53.552;9.908;2022-08-05T05:16:10;16.20;99.90
13684;DHT22;6914;53.552;9.908;2022-08-05T05:18:37;16.20;99.90
13684;DHT22;6914;53.552;9.908;2022-08-05T05:21:04;16.30;99.90
13684;DHT22;6914;53.552;9.908;2022-08-05T05:23:33;16.30;99.90
13684;DHT22;6914;53.552;9.908;2022-08-05T05:26:00;16.30;99.90
13684;DHT22;6914;53.552;9.908;2022-08-05T05:28:27;16.40;99.90
13684;DHT22;6914;53.552;9.908;2022-08-05T05:30:54;16.50;99.90
13684;DHT22;6914;53.552;9.908;2022-08-05T05:33:21;16.50;99.90
13684;DHT22;6914;53.552;9.908;2022-08-05T05:35:48;16.60;99.90
13684;DHT22;6914;53.552;9.908;2022-08-05T05:38:16;16.60;99.90
13684;DHT22;6914;53.552;9.908;2022-08-05T05:40:44;16.60;99.90
13684;DHT22;6914;53.552;9.908;2022-08-05T05:43:11;16.60;99.90
13684;DHT22;6914;53.552;9.908;2022-08-05T05:45:38;16.70;99.90
13684;DHT22;6914;53.552;9.908;2022-08-05T05:48:06;16.70;99.90
13684;DHT22;6914;53.552;9.908;2022-08-05T05:50:33;16.50;99.90
13684;DHT22;6914;53.552;9.908;2022-08-05T05:53:01;16.50;99.90
13684;DHT22;6914;53.552;9.908;2022-08-05T05:55:28;16.40;99.90
13684;DHT22;6914;53.552;9.908;2022-08-05T05:57:56;16.50;99.90
13684;DHT22;6914;53.552;9.908;2022-08-05T06:00:23;16.50;99.90
13684;DHT22;6914;53.552;9.908;2022-08-05T06:02:50;16.50;99.90
13684;DHT22;6914;53.552;9.908;2022-08-05T06:05:17;16.50;99.90
13684;DHT22;6914;53.552;9.908;2022-08-05T06:07:46;16.50;99.90
13684;DHT22;6914;53.552;9.908;2022-08-05T06:10:14;16.50;99.90
13684;DHT22;6914;53.552;9.908;2022-08-05T06:12:41;16.60;99.90
13684;DHT22;6914;53.552;9.908;2022-08-05T06:15:10;16.60;99.90
13684;DHT22;6914;53.552;9.908;2022-08-05T06:17:37;16.60;99.90
13684;DHT22;6914;53.552;9.908;2022-08-05T06:20:05;16.70;99.90
13684;DHT22;6914;53.552;9.908;2022-08-05T06:22:33;16.70;99.90
13684;DHT22;6914;53.552;9.908;2022-08-05T06:25:00;16.80;99.90
13684;DHT22;6914;53.552;9.908;2022-08-05T06:27:27;16.90;99.90
13684;DHT22;6914;53.552;9.908;2022-08-05T06:29:54;17.10;99.90
13684;DHT22;6914;53.552;9.908;2022-08-05T06:32:22;17.30;99.90
13684;DHT22;6914;53.552;9.908;2022-08-05T06:34:49;17.30;99.90
13684;DHT22;6914;53.552;9.908;2022-08-05T06:37:16;17.30;99.90
13684;DHT22;6914;53.552;9.908;2022-08-05T06:39:43;17.50;99.90
13684;DHT22;6914;53.552;9.908;2022-08-05T06:42:10;17.50;99.90
13684;DHT22;6914;53.552;9.908;2022-08-05T06:44:40;17.60;99.90
13684;DHT22;6914;53.552;9.908;2022-08-05T06:47:08;17.70;99.90
13684;DHT22;6914;53.552;9.908;2022-08-05T06:49:37;17.80;99.90
13684;DHT22;6914;53.552;9.908;2022-08-05T06:52:04;18.00;99.90
13684;DHT22;6914;53.552;9.908;2022-08-05T06:54:31;18.00;99.90
13684;DHT22;6914;53.552;9.908;2022-08-05T06:56:58;17.90;99.90
13684;DHT22;6914;53.552;9.908;2022-08-05T06:59:25;17.90;99.90
13684;DHT22;6914;53.552;9.908;2022-08-05T07:01:52;17.90;99.90
13684;DHT22;6914;53.552;9.908;2022-08-05T07:04:19;18.00;99.90
13684;DHT22;6914;53.552;9.908;2022-08-05T07:06:47;18.10;99.90
13684;DHT22;6914;53.552;9.908;2022-08-05T07:09:14;18.20;99.90
13684;DHT22;6914;53.552;9.908;2022-08-05T07:11:41;18.10;99.90
13684;DHT22;6914;53.552;9.908;2022-08-05T07:14:08;18.10;99.90
13684;DHT22;6914;53.552;9.908;2022-08-05T07:16:52;18.10;99.90
13684;DHT22;6914;53.552;9.908;2022-08-05T07:19:24;18.00;99.90
13684;DHT22;6914;53.552;9.908;2022-08-05T07:21:54;18.10;99.90
13684;DHT22;6914;53.552;9.908;2022-08-05T07:24:21;17.90;99.90
13684;DHT22;6914;53.552;9.908;2022-08-05T07:26:48;18.00;99.90
13684;DHT22;6914;53.552;9.908;2022-08-05T07:29:15;18.00;99.90
13684;DHT22;6914;53.552;9.908;2022-08-05T07:31:42;18.00;99.90
13684;DHT22;6914;53.552;9.908;2022-08-05T07:34:09;17.90;99.90
13684;DHT22;6914;53.552;9.908;2022-08-05T07:36:36;17.80;99.90
13684;DHT22;6914;53.552;9.908;2022-08-05T07:39:07;17.80;99.90
13684;DHT22;6914;53.552;9.908;2022-08-05T07:41:34;17.80;99.90
13684;DHT22;6914;53.552;9.908;2022-08-05T07:44:03;17.80;99.90
13684;DHT22;6914;53.552;9.908;2022-08-05T07:46:31;17.80;99.90
13684;DHT22;6914;53.552;9.908;2022-08-05T07:49:00;17.80;99.90
13684;DHT22;6914;53.552;9.908;2022-08-05T07:51:27;17.90;99.90
13684;DHT22;6914;53.552;9.908;2022-08-05T07:53:54;17.80;99.90
13684;DHT22;6914;53.552;9.908;2022-08-05T07:56:22;17.80;99.90
13684;DHT22;6914;53.552;9.908;2022-08-05T07:58:49;17.80;99.90
13684;DHT22;6914;53.552;9.908;2022-08-05T08:01:16;17.70;99.90
13684;DHT22;6914;53.552;9.908;2022-08-05T08:03:43;17.80;99.90
13684;DHT22;6914;53.552;9.908;2022-08-05T08:06:11;17.70;99.90
13684;DHT22;6914;53.552;9.908;2022-08-05T08:08:39;17.70;99.90
13684;DHT22;6914;53.552;9.908;2022-08-05T08:11:06;17.70;99.90
13684;DHT22;6914;53.552;9.908;2022-08-05T08:13:35;17.70;99.90
13684;DHT22;6914;53.552;9.908;2022-08-05T08:16:02;17.70;99.90
13684;DHT22;6914;53.552;9.908;2022-08-05T08:18:29;17.70;99.90
13684;DHT22;6914;53.552;9.908;2022-08-05T08:20:56;17.60;99.90
13684;DHT22;6914;53.552;9.908;2022-08-05T08:23:23;17.60;99.90
13684;DHT22;6914;53.552;9.908;2022-08-05T08:25:50;17.50;99.90
13684;DHT22;6914;53.552;9.908;2022-08-05T08:28:17;17.50;99.90
13684;DHT22;6914;53.552;9.908;2022-08-05T08:30:46;17.50;99.90
13684;DHT22;6914;53.552;9.908;2022-08-05T08:33:13;17.50;99.90
13684;DHT22;6914;53.552;9.908;2022-08-05T08:35:40;17.40;99.90
13684;DHT22;6914;53.552;9.908;2022-08-05T08:38:07;17.50;99.90
13684;DHT22;6914;53.552;9.908;2022-08-05T08:40:34;17.50;99.90
13684;DHT22;6914;53.552;9.908;2022-08-05T08:43:02;17.50;99.90
13684;DHT22;6914;53.552;9.908;2022-08-05T08:45:30;17.40;99.90
13684;DHT22;6914;53.552;9.908;2022-08-05T08:47:59;17.40;99.90
13684;DHT22;6914;53.552;9.908;2022-08-05T08:50:29;17.40;99.90
13684;DHT22;6914;53.552;9.908;2022-08-05T08:53:02;17.40;99.90
13684;DHT22;6914;53.552;9.908;2022-08-05T08:55:30;17.40;99.90
13684;DHT22;6914;53.552;9.908;2022-08-05T08:57:58;17.30;99.90
13684;DHT22;6914;53.552;9.908;2022-08-05T09:00:26;17.30;99.90
13684;DHT22;6914;53.552;9.908;2022-08-05T09:02:53;17.30;99.90
13684;DHT22;6914;53.552;9.908;2022-08-05T09:05:22;17.30;99.90
13684;DHT22;6914;53.552;9.908;2022-08-05T09:07:50;17.40;99.90
13684;DHT22;6914;53.552;9.908;2022-08-05T09:10:17;17.40;99.90
13684;DHT22;6914;53.552;9.908;2022-08-05T09:12:45;17.60;99.90
13684;DHT22;6914;53.552;9.908;2022-08-05T09:15:12;17.60;99.90
13684;DHT22;6914;53.552;9.908;2022-08-05T09:17:40;17.60;99.90
13684;DHT22;6914;53.552;9.908;2022-08-05T09:20:08;17.70;99.90
13684;DHT22;6914;53.552;9.908;2022-08-05T09:23:05;17.70;99.90
13684;DHT22;6914;53.552;9.908;2022-08-05T09:25:33;17.60;99.90
13684;DHT22;6914;53.552;9.908;2022-08-05T09:28:14;17.60;99.90
13684;DHT22;6914;53.552;9.908;2022-08-05T09:30:51;17.50;99.90
13684;DHT22;6914;53.552;9.908;2022-08-05T09:33:19;17.50;99.90
13684;DHT22;6914;53.552;9.908;2022-08-05T09:35:56;17.50;99.90
13684;DHT22;6914;53.552;9.908;2022-08-05T09:38:26;17.60;99.90
13684;DHT22;6914;53.552;9.908;2022-08-05T09:40:54;17.60;99.90
13684;DHT22;6914;53.552;9.908;2022-08-05T09:43:29;17.70;99.90
13684;DHT22;6914;53.552;9.908;2022-08-05T09:45:57;17.70;99.90
13684;DHT22;6914;53.552;9.908;2022-08-05T09:48:26;17.80;99.90
13684;DHT22;6914;53.552;9.908;2022-08-05T09:50:55;17.90;99.90
13684;DHT22;6914;53.552;9.908;2022-08-05T09:53:24;18.00;99.90
13684;DHT22;6914;53.552;9.908;2022-08-05T09:55:54;18.10;99.90
13684;DHT22;6914;53.552;9.908;2022-08-05T09:58:21;18.20;99.90
13684;DHT22;6914;53.552;9.908;2022-08-05T10:00:53;18.20;99.90
13684;DHT22;6914;53.552;9.908;2022-08-05T10:03:20;18.20;99.90
13684;DHT22;6914;53.552;9.908;2022-08-05T10:06:00;18.30;99.90
13684;DHT22;6914;53.552;9.908;2022-08-05T10:08:29;18.30;99.90
13684;DHT22;6914;53.552;9.908;2022-08-05T10:10:56;18.20;99.90
13684;DHT22;6914;53.552;9.908;2022-08-05T10:13:28;18.20;99.90
13684;DHT22;6914;53.552;9.908;2022-08-05T10:15:56;18.00;99.90
13684;DHT22;6914;53.552;9.908;2022-08-05T10:18:25;18.00;99.90
13684;DHT22;6914;53.552;9.908;2022-08-05T10:20:54;18.10;99.90
13684;DHT22;6914;53.552;9.908;2022-08-05T10:23:23;18.00;99.90
13684;DHT22;6914;53.552;9.908;2022-08-05T10:25:53;18.00;99.90
13684;DHT22;6914;53.552;9.908;2022-08-05T10:28:20;17.90;99.90
13684;DHT22;6914;53.552;9.908;2022-08-05T10:30:47;17.90;99.90
13684;DHT22;6914;53.552;9.908;2022-08-05T10:33:15;17.90;99.90
13684;DHT22;6914;53.552;9.908;2022-08-05T10:35:43;18.00;99.90
13684;DHT22;6914;53.552;9.908;2022-08-05T10:38:10;17.90;99.90
13684;DHT22;6914;53.552;9.908;2022-08-05T10:40:42;17.90;99.90
13684;DHT22;6914;53.552;9.908;2022-08-05T10:43:16;17.90;99.90
13684;DHT22;6914;53.552;9.908;2022-08-05T10:45:55;17.80;99.90
13684;DHT22;6914;53.552;9.908;2022-08-05T10:48:34;17.60;99.90
13684;DHT22;6914;53.552;9.908;2022-08-05T10:51:06;17.60;99.90
13684;DHT22;6914;53.552;9.908;2022-08-05T10:53:39;17.60;99.90
13684;DHT22;6914;53.552;9.908;2022-08-05T10:56:08;17.40;99.90
13684;DHT22;6914;53.552;9.908;2022-08-05T10:58:59;17.40;99.90
13684;DHT22;6914;53.552;9.908;2022-08-05T11:01:30;17.40;99.90
13684;DHT22;6914;53.552;9.908;2022-08-05T11:04:04;17.30;99.90
13684;DHT22;6914;53.552;9.908;2022-08-05T11:06:32;17.30;99.90
13684;DHT22;6914;53.552;9.908;2022-08-05T11:09:26;17.30;99.90
13684;DHT22;6914;53.552;9.908;2022-08-05T11:11:56;17.20;99.90
13684;DHT22;6914;53.552;9.908;2022-08-05T11:14:26;17.10;99.90
13684;DHT22;6914;53.552;9.908;2022-08-05T11:17:28;16.80;99.90
13684;DHT22;6914;53.552;9.908;2022-08-05T11:19:57;17.00;99.90
13684;DHT22;6914;53.552;9.908;2022-08-05T11:22:41;16.80;99.90
13684;DHT22;6914;53.552;9.908;2022-08-05T11:25:29;16.80;99.90
13684;DHT22;6914;53.552;9.908;2022-08-05T11:31:21;16.70;99.90
13684;DHT22;6914;53.552;9.908;2022-08-05T11:33:54;16.70;99.90
13684;DHT22;6914;53.552;9.908;2022-08-05T11:36:44;16.60;99.90
13684;DHT22;6914;53.552;9.908;2022-08-05T11:39:13;16.60;99.90
13684;DHT22;6914;53.552;9.908;2022-08-05T11:41:41;16.60;99.90
13684;DHT22;6914;53.552;9.908;2022-08-05T11:44:14;16.80;99.90
13684;DHT22;6914;53.552;9.908;2022-08-05T11:46:48;16.90;99.90
13684;DHT22;6914;53.552;9.908;2022-08-05T11:49:16;17.00;99.90
13684;DHT22;6914;53.552;9.908;2022-08-05T11:51:44;17.00;99.90
13684;DHT22;6914;53.552;9.908;2022-08-05T11:54:13;17.10;99.90
13684;DHT22;6914;53.552;9.908;2022-08-05T11:56:45;17.20;99.90
13684;DHT22;6914;53.552;9.908;2022-08-05T11:59:14;17.20;99.90
13684;DHT22;6914;53.552;9.908;2022-08-05T12:01:57;17.40;99.90
13684;DHT22;6914;53.552;9.908;2022-08-05T12:04:26;17.50;99.90
13684;DHT22;6914;53.552;9.908;2022-08-05T12:06:53;17.50;99.90
13684;DHT22;6914;53.552;9.908;2022-08-05T12:09:23;17.70;99.90
13684;DHT22;6914;53.552;9.908;2022-08-05T12:11:52;17.90;99.90
13684;DHT22;6914;53.552;9.908;2022-08-05T12:14:19;18.10;99.90
13684;DHT22;6914;53.552;9.908;2022-08-05T12:16:46;18.20;99.90
13684;DHT22;6914;53.552;9.908;2022-08-05T12:19:15;18.20;99.90
13684;DHT22;6914;53.552;9.908;2022-08-05T12:21:46;18.30;99.90
13684;DHT22;6914;53.552;9.908;2022-08-05T12:24:16;18.30;99.90
13684;DHT22;6914;53.552;9.908;2022-08-05T12:26:46;18.40;99.90
13684;DHT22;6914;53.552;9.908;2022-08-05T12:29:16;18.50;99.90
13684;DHT22;6914;53.552;9.908;2022-08-05T12:31:45;18.60;99.90
13684;DHT22;6914;53.552;9.908;2022-08-05T12:34:15;18.60;99.90
13684;DHT22;6914;53.552;9.908;2022-08-05T12:36:44;18.60;99.90
13684;DHT22;6914;53.552;9.908;2022-08-05T12:39:12;18.80;99.90
13684;DHT22;6914;53.552;9.908;2022-08-05T12:41:40;19.00;99.90
13684;DHT22;6914;53.552;9.908;2022-08-05T12:44:09;19.20;99.90
13684;DHT22;6914;53.552;9.908;2022-08-05T12:46:37;19.40;99.90
13684;DHT22;6914;53.552;9.908;2022-08-05T12:49:06;19.30;99.90
13684;DHT22;6914;53.552;9.908;2022-08-05T12:51:46;19.30;99.90
13684;DHT22;6914;53.552;9.908;2022-08-05T12:54:23;19.40;99.90
13684;DHT22;6914;53.552;9.908;2022-08-05T12:56:52;19.80;99.90
13684;DHT22;6914;53.552;9.908;2022-08-05T12:59:20;20.10;99.90
13684;DHT22;6914;53.552;9.908;2022-08-05T13:01:55;20.40;99.90
13684;DHT22;6914;53.552;9.908;2022-08-05T13:04:25;20.70;99.90
13684;DHT22;6914;53.552;9.908;2022-08-05T13:06:56;21.00;99.90
13684;DHT22;6914;53.552;9.908;2022-08-05T13:09:24;21.20;99.90
13684;DHT22;6914;53.552;9.908;2022-08-05T13:12:02;21.30;99.90
13684;DHT22;6914;53.552;9.908;2022-08-05T13:14:34;21.30;99.90
13684;DHT22;6914;53.552;9.908;2022-08-05T13:17:06;21.50;99.90
13684;DHT22;6914;53.552;9.908;2022-08-05T13:19:34;22.00;99.90
13684;DHT22;6914;53.552;9.908;2022-08-05T13:22:02;22.20;99.90
13684;DHT22;6914;53.552;9.908;2022-08-05T13:24:29;21.90;99.90
13684;DHT22;6914;53.552;9.908;2022-08-05T13:26:56;22.20;99.90
13684;DHT22;6914;53.552;9.908;2022-08-05T13:29:23;22.00;99.90
13684;DHT22;6914;53.552;9.908;2022-08-05T13:31:50;21.70;99.90
13684;DHT22;6914;53.552;9.908;2022-08-05T13:34:17;21.90;99.90
13684;DHT22;6914;53.552;9.908;2022-08-05T13:36:44;21.90;99.90
13684;DHT22;6914;53.552;9.908;2022-08-05T13:39:12;21.40;99.90
13684;DHT22;6914;53.552;9.908;2022-08-05T13:41:39;21.50;99.90
13684;DHT22;6914;53.552;9.908;2022-08-05T13:44:06;21.10;99.90
13684;DHT22;6914;53.552;9.908;2022-08-05T13:46:33;21.10;99.90
13684;DHT22;6914;53.552;9.908;2022-08-05T13:49:00;21.20;99.90
13684;DHT22;6914;53.552;9.908;2022-08-05T13:51:30;21.30;99.90
13684;DHT22;6914;53.552;9.908;2022-08-05T13:53:58;21.40;99.90
13684;DHT22;6914;53.552;9.908;2022-08-05T13:56:28;21.40;99.90
13684;DHT22;6914;53.552;9.908;2022-08-05T13:58:55;22.90;99.90
13684;DHT22;6914;53.552;9.908;2022-08-05T14:01:22;21.30;99.90
13684;DHT22;6914;53.552;9.908;2022-08-05T14:03:49;21.20;99.90
13684;DHT22;6914;53.552;9.908;2022-08-05T14:06:48;21.30;99.90
13684;DHT22;6914;53.552;9.908;2022-08-05T14:09:15;21.40;99.90
13684;DHT22;6914;53.552;9.908;2022-08-05T14:11:43;21.50;99.90
13684;DHT22;6914;53.552;9.908;2022-08-05T14:14:10;21.60;99.90
13684;DHT22;6914;53.552;9.908;2022-08-05T14:16:37;21.60;99.90
13684;DHT22;6914;53.552;9.908;2022-08-05T14:19:04;21.30;99.90
13684;DHT22;6914;53.552;9.908;2022-08-05T14:21:31;21.20;99.90
13684;DHT22;6914;53.552;9.908;2022-08-05T14:23:58;21.10;99.90
13684;DHT22;6914;53.552;9.908;2022-08-05T14:26:25;21.20;99.90
13684;DHT22;6914;53.552;9.908;2022-08-05T14:28:53;21.30;99.90
13684;DHT22;6914;53.552;9.908;2022-08-05T14:31:20;21.10;99.90
13684;DHT22;6914;53.552;9.908;2022-08-05T14:33:47;21.00;99.90
13684;DHT22;6914;53.552;9.908;2022-08-05T14:36:14;20.90;99.90
13684;DHT22;6914;53.552;9.908;2022-08-05T14:38:41;20.90;99.90
13684;DHT22;6914;53.552;9.908;2022-08-05T14:41:08;21.00;99.90
13684;DHT22;6914;53.552;9.908;2022-08-05T14:43:35;21.00;99.90
13684;DHT22;6914;53.552;9.908;2022-08-05T14:46:04;20.90;99.90
13684;DHT22;6914;53.552;9.908;2022-08-05T14:48:31;20.60;99.90
13684;DHT22;6914;53.552;9.908;2022-08-05T14:50:58;20.50;99.90
13684;DHT22;6914;53.552;9.908;2022-08-05T14:53:25;20.60;99.90
13684;DHT22;6914;53.552;9.908;2022-08-05T14:55:52;20.80;99.90
13684;DHT22;6914;53.552;9.908;2022-08-05T14:58:19;20.90;99.90
13684;DHT22;6914;53.552;9.908;2022-08-05T15:00:46;21.00;99.90
13684;DHT22;6914;53.552;9.908;2022-08-05T15:03:15;20.90;99.90
13684;DHT22;6914;53.552;9.908;2022-08-05T15:05:42;20.90;99.90
13684;DHT22;6914;53.552;9.908;2022-08-05T15:08:08;20.90;99.90
13684;DHT22;6914;53.552;9.908;2022-08-05T15:10:35;20.90;99.90
13684;DHT22;6914;53.552;9.908;2022-08-05T15:13:02;20.70;99.90
13684;DHT22;6914;53.552;9.908;2022-08-05T15:15:29;20.60;99.90
13684;DHT22;6914;53.552;9.908;2022-08-05T15:17:56;20.30;99.90
13684;DHT22;6914;53.552;9.908;2022-08-05T15:20:25;20.20;99.90
13684;DHT22;6914;53.552;9.908;2022-08-05T15:22:52;20.20;99.90
13684;DHT22;6914;53.552;9.908;2022-08-05T15:25:18;20.10;99.90
13684;DHT22;6914;53.552;9.908;2022-08-05T15:27:47;20.00;99.90
13684;DHT22;6914;53.552;9.908;2022-08-05T15:30:14;19.90;99.90
13684;DHT22;6914;53.552;9.908;2022-08-05T15:32:41;19.80;99.90
13684;DHT22;6914;53.552;9.908;2022-08-05T15:35:08;19.70;99.90
13684;DHT22;6914;53.552;9.908;2022-08-05T15:37:37;19.10;99.90
13684;DHT22;6914;53.552;9.908;2022-08-05T15:40:04;18.70;99.90
13684;DHT22;6914;53.552;9.908;2022-08-05T15:42:32;18.60;99.90
13684;DHT22;6914;53.552;9.908;2022-08-05T15:44:58;18.70;99.90
13684;DHT22;6914;53.552;9.908;2022-08-05T15:47:25;18.60;99.90
13684;DHT22;6914;53.552;9.908;2022-08-05T15:49:52;18.50;99.90
13684;DHT22;6914;53.552;9.908;2022-08-05T15:52:20;18.50;99.90
13684;DHT22;6914;53.552;9.908;2022-08-05T15:54:48;18.50;99.90
13684;DHT22;6914;53.552;9.908;2022-08-05T15:57:17;18.40;99.90
13684;DHT22;6914;53.552;9.908;2022-08-05T15:59:44;18.50;99.90
13684;DHT22;6914;53.552;9.908;2022-08-05T16:02:11;18.60;99.90